createdAt,value
2017-11-21T00:00:06.986Z,15.52
2017-11-21T00:02:34.552Z,14.80
2017-11-21T00:05:02.169Z,14.35
2017-11-21T00:07:29.722Z,15.70
2017-11-21T00:09:57.298Z,15.10
2017-11-21T00:12:24.859Z,15.05
2017-11-21T00:14:52.430Z,14.32
2017-11-21T00:17:20.842Z,15.35
2017-11-21T00:19:48.420Z,15.25
2017-11-21T00:22:27.895Z,13.18
2017-11-21T00:24:56.263Z,13.32
2017-11-21T00:27:23.855Z,13.48
2017-11-21T00:29:52.229Z,13.75
2017-11-21T00:32:20.604Z,14.13
2017-11-21T00:34:48.963Z,13.98
2017-11-21T00:37:16.530Z,13.38
2017-11-21T00:39:44.110Z,12.45
2017-11-21T00:42:12.440Z,12.15
2017-11-21T00:44:39.989Z,12.23
2017-11-21T00:47:07.542Z,13.77
2017-11-21T00:49:35.138Z,12.68
2017-11-21T00:52:02.708Z,12.25
2017-11-21T00:54:31.070Z,13.27
2017-11-21T00:56:58.646Z,13.00
2017-11-21T00:59:27.016Z,13.00
2017-11-21T01:01:54.571Z,13.50
2017-11-21T01:04:22.176Z,11.80
2017-11-21T01:06:49.751Z,13.48
2017-11-21T01:09:17.357Z,13.38
2017-11-21T01:11:44.925Z,13.35
2017-11-21T01:14:13.265Z,12.93
2017-11-21T01:16:40.839Z,12.50
2017-11-21T01:19:08.442Z,11.25
2017-11-21T01:21:36.797Z,11.65
2017-11-21T01:24:04.386Z,11.45
2017-11-21T01:26:32.721Z,11.35
2017-11-21T01:29:00.311Z,11.12
2017-11-21T01:31:28.673Z,10.98
2017-11-21T01:33:56.220Z,10.68
2017-11-21T01:36:23.809Z,10.13
2017-11-21T01:38:51.387Z,11.27
2017-11-21T01:41:19.731Z,9.55
2017-11-21T01:43:47.311Z,9.40
2017-11-21T01:46:15.657Z,11.70
2017-11-21T01:48:43.244Z,10.13
2017-11-21T01:51:10.816Z,9.52
2017-11-21T01:53:39.172Z,9.75
2017-11-21T01:56:06.736Z,10.05
2017-11-21T01:58:34.316Z,10.20
2017-11-21T02:01:02.671Z,9.43
2017-11-21T02:03:30.244Z,10.05
2017-11-21T02:05:57.811Z,9.88
2017-11-21T02:08:26.159Z,10.15
2017-11-21T02:10:53.754Z,9.75
2017-11-21T02:13:22.096Z,9.80
2017-11-21T02:15:49.664Z,9.80
2017-11-21T02:18:17.250Z,10.02
2017-11-21T02:20:44.841Z,9.63
2017-11-21T02:23:12.422Z,9.48
2017-11-21T02:25:39.993Z,9.38
2017-11-21T02:28:07.588Z,9.75
2017-11-21T02:30:35.168Z,9.50
2017-11-21T02:33:02.775Z,9.93
2017-11-21T02:35:30.342Z,9.65
2017-11-21T02:37:57.918Z,9.60
2017-11-21T02:40:25.491Z,9.55
2017-11-21T02:42:53.837Z,10.40
2017-11-21T02:45:21.438Z,8.57
2017-11-21T02:47:49.785Z,9.50
2017-11-21T02:50:17.349Z,8.70
2017-11-21T02:52:44.961Z,7.95
2017-11-21T02:55:12.521Z,8.07
2017-11-21T02:57:40.120Z,7.65
2017-11-21T03:00:07.747Z,7.80
2017-11-21T03:02:35.447Z,7.45
2017-11-21T03:05:03.002Z,7.60
2017-11-21T03:07:30.569Z,6.65
2017-11-21T03:09:58.142Z,7.53
2017-11-21T03:12:25.721Z,7.78
2017-11-21T03:14:54.055Z,6.87
2017-11-21T03:17:21.659Z,7.37
2017-11-21T03:19:50.022Z,6.82
2017-11-21T03:22:29.489Z,6.85
2017-11-21T03:25:24.522Z,6.75
2017-11-21T03:28:04.883Z,6.30
2017-11-21T03:30:33.237Z,6.53
2017-11-21T03:33:00.842Z,5.53
2017-11-21T03:35:28.428Z,6.30
2017-11-21T03:37:55.974Z,6.62
2017-11-21T03:40:23.586Z,6.28
2017-11-21T03:42:51.172Z,5.87
2017-11-21T03:45:18.730Z,5.85
2017-11-21T03:47:46.306Z,6.00
2017-11-21T03:50:13.865Z,6.40
2017-11-21T03:52:41.443Z,5.97
2017-11-21T03:55:09.035Z,5.82
2017-11-21T03:57:37.385Z,5.80
2017-11-21T04:00:04.962Z,6.00
2017-11-21T04:02:33.326Z,5.70
2017-11-21T04:05:00.887Z,5.30
2017-11-21T04:07:28.483Z,5.35
2017-11-21T04:09:56.068Z,5.40
2017-11-21T04:12:23.627Z,5.60
2017-11-21T04:14:51.981Z,5.53
2017-11-21T04:17:19.553Z,5.55
2017-11-21T04:19:47.120Z,6.37
2017-11-21T04:22:14.694Z,5.62
2017-11-21T04:24:42.282Z,5.95
2017-11-21T04:27:09.838Z,5.78
2017-11-21T04:29:37.426Z,6.43
2017-11-21T04:32:05.029Z,5.30
2017-11-21T04:34:32.602Z,5.20
2017-11-21T04:37:00.170Z,5.53
2017-11-21T04:39:27.744Z,5.70
2017-11-21T04:41:55.319Z,5.95
2017-11-21T04:44:23.641Z,5.78
2017-11-21T04:46:51.249Z,5.60
2017-11-21T04:49:18.867Z,6.32
2017-11-21T04:51:46.477Z,6.78
2017-11-21T04:54:14.812Z,5.68
2017-11-21T04:56:42.386Z,5.60
2017-11-21T04:59:09.977Z,5.87
2017-11-21T05:01:38.323Z,6.00
2017-11-21T05:04:05.883Z,5.43
2017-11-21T05:06:33.460Z,5.93
2017-11-21T05:09:01.064Z,6.40
2017-11-21T05:11:28.648Z,6.90
2017-11-21T05:13:56.230Z,6.05
2017-11-21T05:16:23.845Z,6.00
2017-11-21T05:18:51.420Z,6.65
2017-11-21T05:21:19.014Z,6.18
2017-11-21T05:23:46.566Z,6.60
2017-11-21T05:26:14.145Z,6.85
2017-11-21T05:28:41.725Z,8.10
2017-11-21T05:31:10.086Z,7.03
2017-11-21T05:33:39.763Z,6.93
2017-11-21T05:36:07.325Z,7.70
2017-11-21T05:38:34.924Z,6.45
2017-11-21T05:41:02.585Z,7.72
2017-11-21T05:43:30.219Z,7.90
2017-11-21T05:45:57.785Z,7.00
2017-11-21T05:48:25.374Z,6.65
2017-11-21T05:50:53.702Z,6.53
2017-11-21T05:53:21.267Z,6.90
2017-11-21T05:55:48.824Z,6.07
2017-11-21T05:58:16.429Z,6.82
2017-11-21T06:00:44.050Z,7.07
2017-11-21T06:03:11.618Z,6.32
2017-11-21T06:05:39.211Z,6.72
2017-11-21T06:08:06.948Z,7.07
2017-11-21T06:10:35.354Z,6.57
2017-11-21T06:13:03.711Z,6.68
2017-11-21T06:15:31.298Z,6.82
2017-11-21T06:17:59.631Z,6.60
2017-11-21T06:20:27.213Z,6.60
2017-11-21T06:22:54.769Z,6.62
2017-11-21T06:25:22.346Z,6.20
2017-11-21T06:27:49.919Z,6.85
2017-11-21T06:30:18.271Z,6.85
2017-11-21T06:32:45.873Z,6.72
2017-11-21T06:35:13.491Z,6.75
2017-11-21T06:37:41.091Z,5.82
2017-11-21T06:40:09.442Z,6.45
2017-11-21T06:42:37.010Z,6.30
2017-11-21T06:45:04.571Z,6.20
2017-11-21T06:47:32.147Z,6.00
2017-11-21T06:50:00.458Z,6.20
2017-11-21T06:52:28.056Z,6.68
2017-11-21T06:54:55.607Z,6.40
2017-11-21T06:57:23.200Z,6.07
2017-11-21T06:59:51.506Z,5.45
2017-11-21T07:02:19.070Z,6.62
2017-11-21T07:04:46.643Z,6.40
2017-11-21T07:07:14.957Z,6.03
2017-11-21T07:09:42.536Z,6.68
2017-11-21T07:12:10.858Z,6.32
2017-11-21T07:14:38.456Z,5.85
2017-11-21T07:17:06.007Z,6.55
2017-11-21T07:19:33.588Z,6.60
2017-11-21T07:22:01.926Z,6.00
2017-11-21T07:24:29.479Z,6.18
2017-11-21T07:26:57.062Z,6.57
2017-11-21T07:29:24.649Z,5.97
2017-11-21T07:31:53.000Z,5.97
2017-11-21T07:34:20.562Z,5.40
2017-11-21T07:36:48.127Z,5.93
2017-11-21T07:39:15.724Z,5.35
2017-11-21T07:41:43.283Z,5.82
2017-11-21T07:44:12.769Z,5.40
2017-11-21T07:46:40.418Z,5.30
2017-11-21T07:49:08.000Z,5.65
2017-11-21T07:51:36.324Z,5.40
2017-11-21T07:54:03.899Z,4.75
2017-11-21T07:56:31.477Z,5.22
2017-11-21T07:58:59.029Z,5.05
2017-11-21T08:01:26.584Z,5.50
2017-11-21T08:03:54.162Z,4.90
2017-11-21T08:06:21.721Z,5.72
2017-11-21T08:08:49.289Z,5.65
2017-11-21T08:11:16.900Z,5.30
2017-11-21T08:13:44.487Z,5.95
2017-11-21T08:16:12.047Z,5.15
2017-11-21T08:18:39.613Z,4.93
2017-11-21T08:21:07.184Z,5.72
2017-11-21T08:23:34.779Z,5.28
2017-11-21T08:26:02.336Z,5.97
2017-11-21T08:28:29.916Z,6.28
2017-11-21T08:30:57.466Z,5.65
2017-11-21T08:33:25.054Z,6.62
2017-11-21T08:35:52.620Z,6.93
2017-11-21T08:38:20.191Z,6.90
2017-11-21T08:40:47.778Z,5.95
2017-11-21T08:43:16.123Z,6.22
2017-11-21T08:45:43.712Z,8.20
2017-11-21T08:48:12.046Z,6.95
2017-11-21T08:50:39.609Z,5.75
2017-11-21T08:53:07.207Z,6.25
2017-11-21T08:55:34.770Z,6.35
2017-11-21T08:58:02.326Z,7.18
2017-11-21T09:00:29.899Z,5.93
2017-11-21T09:02:58.245Z,5.72
2017-11-21T09:05:25.874Z,5.70
2017-11-21T09:07:53.451Z,5.80
2017-11-21T09:10:20.999Z,5.25
2017-11-21T09:12:48.576Z,6.10
2017-11-21T09:15:16.132Z,5.97
2017-11-21T09:17:44.504Z,6.80
2017-11-21T09:20:12.081Z,7.00
2017-11-21T09:22:39.679Z,6.80
2017-11-21T09:25:08.031Z,6.60
2017-11-21T09:27:35.600Z,5.85
2017-11-21T09:30:03.179Z,6.32
2017-11-21T09:32:31.496Z,6.40
2017-11-21T09:34:59.091Z,7.05
2017-11-21T09:37:27.451Z,6.78
2017-11-21T09:39:55.006Z,5.95
2017-11-21T09:42:22.580Z,6.87
2017-11-21T09:44:50.225Z,6.37
2017-11-21T09:47:17.859Z,6.53
2017-11-21T09:49:45.449Z,7.35
2017-11-21T09:52:13.886Z,7.72
2017-11-21T09:54:42.252Z,7.00
2017-11-21T09:57:10.590Z,8.18
2017-11-21T09:59:38.152Z,13.18
2017-11-21T10:02:05.734Z,7.32
2017-11-21T10:04:33.277Z,7.43
2017-11-21T10:07:00.839Z,7.87
2017-11-21T10:09:28.394Z,7.47
2017-11-21T10:11:56.837Z,7.68
2017-11-21T10:14:25.146Z,7.60
2017-11-21T10:16:52.744Z,7.30
2017-11-21T10:19:20.306Z,8.10
2017-11-21T10:21:47.882Z,7.65
2017-11-21T10:24:16.211Z,6.95
2017-11-21T10:26:43.765Z,7.03
2017-11-21T10:29:11.342Z,7.43
2017-11-21T10:31:38.905Z,7.65
2017-11-21T10:34:06.506Z,8.52
2017-11-21T10:36:34.834Z,7.78
2017-11-21T10:39:02.432Z,7.45
2017-11-21T10:41:29.987Z,6.80
2017-11-21T10:43:57.551Z,7.20
2017-11-21T10:46:25.127Z,7.70
2017-11-21T10:48:53.631Z,7.78
2017-11-21T10:51:21.185Z,8.30
2017-11-21T10:53:48.783Z,8.57
2017-11-21T10:56:16.369Z,7.90
2017-11-21T10:58:43.928Z,6.72
2017-11-21T11:01:11.560Z,7.05
2017-11-21T11:03:39.135Z,7.47
2017-11-21T11:06:06.696Z,7.62
2017-11-21T11:08:34.244Z,7.57
2017-11-21T11:11:01.814Z,7.53
2017-11-21T11:13:29.370Z,7.82
2017-11-21T11:15:56.988Z,7.32
2017-11-21T11:18:24.551Z,7.70
2017-11-21T11:20:52.123Z,8.00
2017-11-21T11:23:19.736Z,7.68
2017-11-21T11:25:47.481Z,8.77
2017-11-21T11:28:15.052Z,7.50
2017-11-21T11:30:42.641Z,8.07
